Time;durP1;ratioP1;P1;durP2;ratioP2;P2;SDS_P1;SDS_P2;PMS_P1;PMS_P2;Temp;Humidity;BMP_temperature;BMP_pressure;BME280_temperature;BME280_humidity;BME280_pressure;Samples;Min_cycle;Max_cycle;Signal;HPM_P1;HPM_P2
2023/03/20 00:00:26;;;;;;;65.57;28.02;;;9.70;99.90;;;;;;5093717;28;20028;-65
2023/03/20 00:02:51;;;;;;;63.40;27.98;;;9.70;99.90;;;;;;5093729;28;20047;-65
2023/03/20 00:05:20;;;;;;;64.00;28.60;;;9.70;99.90;;;;;;5093754;28;20477;-65
2023/03/20 00:07:48;;;;;;;59.40;28.42;;;9.70;99.90;;;;;;5093651;28;20402;-65
2023/03/20 00:10:15;;;;;;;61.28;28.33;;;9.80;99.90;;;;;;5093586;28;20536;-65
2023/03/20 00:12:42;;;;;;;66.55;28.02;;;9.80;99.90;;;;;;5093609;28;20056;-65
2023/03/20 00:15:22;;;;;;;56.92;27.70;;;9.80;99.90;;;;;;5093447;28;20046;-65
2023/03/20 00:17:47;;;;;;;65.65;29.40;;;9.80;99.90;;;;;;5093509;28;20055;-65
2023/03/20 00:20:15;;;;;;;63.40;27.45;;;9.80;99.90;;;;;;5092892;28;20505;-65
2023/03/20 00:22:40;;;;;;;65.32;29.88;;;9.80;99.90;;;;;;5093464;28;20023;-65
2023/03/20 00:25:07;;;;;;;68.28;28.60;;;9.80;99.90;;;;;;5093365;28;20534;-65
2023/03/20 00:27:32;;;;;;;69.38;30.42;;;9.80;99.90;;;;;;5093489;28;20022;-65
2023/03/20 00:29:58;;;;;;;62.65;29.40;;;9.90;99.90;;;;;;5093017;28;20020;-68
2023/03/20 00:32:23;;;;;;;69.25;30.10;;;9.90;99.90;;;;;;5093198;28;20366;-65
2023/03/20 00:34:49;;;;;;;67.78;29.98;;;9.90;99.90;;;;;;5092956;28;20033;-65
2023/03/20 00:37:14;;;;;;;65.45;30.00;;;9.90;99.90;;;;;;5093358;28;20028;-67
2023/03/20 00:39:40;;;;;;;61.05;28.63;;;9.90;99.90;;;;;;5093384;28;20040;-65
2023/03/20 00:42:10;;;;;;;74.43;30.83;;;9.90;99.90;;;;;;5093855;28;20024;-65
2023/03/20 00:44:47;;;;;;;69.00;29.73;;;9.90;99.90;;;;;;5097471;28;20477;-66
2023/03/20 00:47:19;;;;;;;66.60;29.73;;;9.90;99.90;;;;;;5097264;28;20020;-65
2023/03/20 00:49:47;;;;;;;68.57;29.83;;;9.90;99.90;;;;;;5077034;28;20050;-65
2023/03/20 00:52:18;;;;;;;66.72;31.02;;;9.80;99.90;;;;;;5077009;28;20029;-65
2023/03/20 00:54:44;;;;;;;70.22;31.67;;;9.90;99.90;;;;;;5076871;28;20059;-65
2023/03/20 00:57:16;;;;;;;73.28;33.17;;;9.80;99.90;;;;;;5076737;28;20567;-65
2023/03/20 01:00:09;;;;;;;69.90;33.10;;;9.80;99.90;;;;;;5076928;28;20540;-65
2023/03/20 01:02:35;;;;;;;81.33;37.37;;;9.80;99.90;;;;;;5076753;28;20089;-65
2023/03/20 01:05:02;;;;;;;73.78;35.00;;;9.80;99.90;;;;;;5076633;28;20251;-65
2023/03/20 01:07:28;;;;;;;80.75;37.25;;;9.80;99.90;;;;;;5076351;28;20395;-65
2023/03/20 01:09:53;;;;;;;84.20;38.67;;;9.80;99.90;;;;;;5076598;28;20028;-65
2023/03/20 01:12:19;;;;;;;85.35;40.13;;;9.80;99.90;;;;;;5076476;28;20028;-65
2023/03/20 01:14:49;;;;;;;83.00;37.85;;;9.80;99.90;;;;;;5076523;28;20031;-65
2023/03/20 01:17:19;;;;;;;80.75;36.90;;;9.70;99.90;;;;;;5076571;28;20028;-65
2023/03/20 01:19:45;;;;;;;79.43;37.28;;;9.80;99.90;;;;;;5075956;28;20078;-65
2023/03/20 01:22:12;;;;;;;81.32;38.75;;;9.80;99.90;;;;;;5076150;28;20032;-65
2023/03/20 01:24:38;;;;;;;86.00;41.33;;;9.80;99.90;;;;;;5076328;28;20017;-65
2023/03/20 01:27:10;;;;;;;95.95;44.70;;;9.70;99.90;;;;;;5076177;28;20516;-66
2023/03/20 01:29:36;;;;;;;97.25;44.78;;;9.70;99.90;;;;;;5076274;28;20036;-65
2023/03/20 01:32:01;;;;;;;92.60;42.90;;;9.60;99.90;;;;;;5076307;28;20033;-65
2023/03/20 01:34:27;;;;;;;93.53;42.03;;;9.60;99.90;;;;;;5076052;28;20052;-65
2023/03/20 01:36:56;;;;;;;94.68;44.00;;;9.50;99.90;;;;;;5076047;28;20017;-65
2023/03/20 01:39:30;;;;;;;91.90;41.13;;;9.50;99.90;;;;;;5076076;28;20102;-65
2023/03/20 01:41:56;;;;;;;94.90;41.40;;;9.40;99.90;;;;;;5075805;28;20520;-65
2023/03/20 01:44:26;;;;;;;92.10;40.70;;;9.40;99.90;;;;;;5075986;28;20017;-65
2023/03/20 01:46:52;;;;;;;95.63;41.60;;;9.40;99.90;;;;;;5075951;28;20025;-65
2023/03/20 01:51:56;;;;;;;96.50;41.40;;;9.40;99.90;;;;;;5111196;27;20307;-65
2023/03/20 01:54:29;;;;;;;96.03;42.10;;;9.30;99.90;;;;;;5111289;28;20473;-65
2023/03/20 01:59:43;;;;;;;89.07;40.20;;;9.40;99.90;;;;;;5111231;27;20376;-65
2023/03/20 02:02:10;;;;;;;86.55;41.42;;;9.30;99.90;;;;;;5111239;28;20028;-65
2023/03/20 02:04:45;;;;;;;80.57;39.17;;;9.30;99.90;;;;;;5111178;28;20077;-65
2023/03/20 02:07:15;;;;;;;82.68;39.25;;;9.20;99.90;;;;;;5111121;27;20065;-64
2023/03/20 02:09:41;;;;;;;78.38;38.58;;;9.20;99.90;;;;;;5111112;28;20027;-64
2023/03/20 02:12:07;;;;;;;77.38;39.20;;;9.20;99.90;;;;;;5111002;28;20020;-65
2023/03/20 02:14:34;;;;;;;78.45;37.83;;;9.20;99.90;;;;;;5111208;28;20115;-65
2023/03/20 02:17:02;;;;;;;81.53;38.92;;;9.20;99.90;;;;;;5110949;28;20035;-64
2023/03/20 02:19:53;;;;;;;77.00;38.20;;;9.20;99.90;;;;;;5110547;28;20371;-64
2023/03/20 02:22:47;;;;;;;83.07;40.08;;;9.10;99.90;;;;;;5110684;28;20032;-64
2023/03/20 02:25:23;;;;;;;;;;;9.20;99.90;;;;;;5111282;28;20122;-64
2023/03/20 02:28:28;;;;;;;80.15;38.13;;;9.10;99.90;;;;;;5110708;28;19995;-64
2023/03/20 02:31:25;;;;;;;80.03;38.80;;;9.00;99.90;;;;;;5110658;28;20119;-65
2023/03/20 02:34:30;;;;;;;74.80;37.47;;;9.00;99.90;;;;;;5110528;28;20032;-65
2023/03/20 02:37:25;;;;;;;77.57;37.38;;;8.90;99.90;;;;;;5110436;28;20512;-65
2023/03/20 02:40:19;;;;;;;72.03;36.00;;;8.90;99.90;;;;;;5110156;28;20040;-65
2023/03/20 02:43:18;;;;;;;70.00;34.40;;;8.90;99.90;;;;;;5110553;28;20370;-65
2023/03/20 02:49:16;;;;;;;70.30;34.22;;;8.90;99.90;;;;;;5111239;27;20437;-65
2023/03/20 02:52:06;;;;;;;67.10;32.80;;;8.90;99.90;;;;;;5111300;28;20042;-66
2023/03/20 02:54:59;;;;;;;67.28;33.20;;;8.90;99.90;;;;;;5111155;28;20031;-65
2023/03/20 02:58:04;;;;;;;66.20;33.00;;;8.90;99.90;;;;;;5110960;28;20115;-65
2023/03/20 03:00:38;;;;;;;69.40;33.05;;;8.80;99.90;;;;;;5111061;28;20035;-65
2023/03/20 03:03:26;;;;;;;68.53;33.63;;;8.90;99.90;;;;;;5110709;28;20024;-65
2023/03/20 03:05:59;;;;;;;65.70;32.80;;;8.80;99.90;;;;;;5110575;28;20027;-65
2023/03/20 03:08:30;;;;;;;63.17;33.22;;;8.90;99.90;;;;;;5110663;28;20028;-65
2023/03/20 03:11:02;;;;;;;66.60;33.60;;;8.80;99.90;;;;;;5110837;28;20040;-65
2023/03/20 03:13:31;;;;;;;68.93;34.17;;;8.80;99.90;;;;;;5110603;28;20063;-65
2023/03/20 03:16:03;;;;;;;68.93;34.50;;;8.80;99.90;;;;;;5110805;28;20473;-65
2023/03/20 03:18:31;;;;;;;70.40;35.58;;;8.80;99.90;;;;;;5110740;28;20035;-65
2023/03/20 03:20:58;;;;;;;69.68;35.92;;;8.80;99.90;;;;;;5110278;28;20430;-65
2023/03/20 03:23:33;;;;;;;71.75;35.55;;;8.80;99.90;;;;;;5110572;27;20028;-65
2023/03/20 03:26:01;;;;;;;67.78;34.70;;;8.80;99.90;;;;;;5110550;28;20035;-65
2023/03/20 03:28:49;;;;;;;63.60;33.28;;;8.80;99.90;;;;;;5110309;28;20386;-65
2023/03/20 03:31:17;;;;;;;68.72;35.33;;;8.80;99.90;;;;;;5110526;28;20024;-65
2023/03/20 03:33:48;;;;;;;64.50;33.42;;;8.80;99.90;;;;;;5110800;28;20101;-65
2023/03/20 03:36:30;;;;;;;65.90;33.47;;;8.80;99.90;;;;;;5110276;28;20513;-65
2023/03/20 03:39:05;;;;;;;67.75;33.58;;;8.80;99.90;;;;;;5109906;28;20024;-65
2023/03/20 03:41:46;;;;;;;64.47;32.70;;;8.80;99.90;;;;;;5110436;28;20076;-65
2023/03/20 03:44:34;;;;;;;65.53;33.42;;;8.70;99.90;;;;;;5109880;28;20523;-65
2023/03/20 03:47:10;;;;;;;69.40;33.33;;;8.70;99.90;;;;;;5110001;28;20100;-65
2023/03/20 03:49:40;;;;;;;64.53;31.08;;;8.70;99.90;;;;;;5110213;28;20385;-65
2023/03/20 03:52:10;;;;;;;65.22;32.53;;;8.70;99.90;;;;;;5110081;28;20016;-65
2023/03/20 03:54:43;;;;;;;64.45;33.22;;;8.70;99.90;;;;;;5110181;28;20069;-67
2023/03/20 03:57:11;;;;;;;74.00;35.83;;;8.70;99.90;;;;;;5109998;28;20363;-65
2023/03/20 03:59:42;;;;;;;73.35;36.33;;;8.70;99.90;;;;;;5100114;28;20024;-65
2023/03/20 04:02:08;;;;;;;74.18;37.35;;;8.70;99.90;;;;;;5096331;28;20027;-65
2023/03/20 04:04:39;;;;;;;73.55;36.88;;;8.70;99.90;;;;;;5096313;28;20123;-65
2023/03/20 04:07:04;;;;;;;74.65;38.40;;;8.70;99.90;;;;;;5096335;28;20496;-65
2023/03/20 04:09:30;;;;;;;73.68;38.08;;;8.70;99.90;;;;;;5096269;28;20020;-65
2023/03/20 04:11:56;;;;;;;78.25;40.08;;;8.70;99.90;;;;;;5096119;28;20031;-65
2023/03/20 04:14:21;;;;;;;75.78;39.08;;;8.70;99.90;;;;;;5096092;28;20474;-65
2023/03/20 04:16:47;;;;;;;75.40;39.50;;;8.80;99.90;;;;;;5095975;28;20103;-66
2023/03/20 04:19:13;;;;;;;75.75;39.28;;;8.70;99.60;;;;;;5095982;28;20031;-65
2023/03/20 04:21:38;;;;;;;76.93;39.17;;;8.80;99.90;;;;;;5095907;28;20125;-65
2023/03/20 04:24:04;;;;;;;78.13;38.33;;;8.80;98.80;;;;;;5095757;28;20060;-65
2023/03/20 04:26:30;;;;;;;72.63;37.97;;;8.70;98.90;;;;;;5095701;28;20070;-65
2023/03/20 04:28:56;;;;;;;84.72;41.63;;;8.70;97.70;;;;;;5095425;28;20020;-65
2023/03/20 04:31:21;;;;;;;78.18;39.65;;;8.70;98.70;;;;;;5095802;28;20431;-66
2023/03/20 04:33:47;;;;;;;79.45;41.08;;;8.70;98.30;;;;;;5095868;28;20042;-65
2023/03/20 04:36:13;;;;;;;81.13;41.28;;;8.70;98.40;;;;;;5095535;28;20027;-65
2023/03/20 04:38:39;;;;;;;71.40;35.92;;;8.70;98.60;;;;;;5095460;28;20099;-65
2023/03/20 04:41:05;;;;;;;64.97;31.65;;;8.70;98.30;;;;;;5095505;28;20024;-65
2023/03/20 04:43:31;;;;;;;53.83;29.13;;;8.70;95.50;;;;;;5095461;28;20028;-65
2023/03/20 04:45:56;;;;;;;52.67;27.33;;;8.70;93.40;;;;;;5095105;28;20028;-66
2023/03/20 04:48:22;;;;;;;47.05;25.48;;;8.60;91.10;;;;;;5095011;28;20401;-65
2023/03/20 04:50:49;;;;;;;43.55;23.05;;;8.60;88.60;;;;;;5095389;28;20386;-65
2023/03/20 04:53:16;;;;;;;39.13;21.55;;;8.60;84.60;;;;;;5095415;28;20028;-65
2023/03/20 04:55:42;;;;;;;39.03;21.10;;;8.60;83.80;;;;;;5095251;28;20503;-65
2023/03/20 04:58:08;;;;;;;37.33;20.50;;;8.60;78.40;;;;;;5095349;28;20473;-65
2023/03/20 05:00:34;;;;;;;37.05;20.77;;;8.60;77.60;;;;;;5095205;28;20073;-65
2023/03/20 05:03:00;;;;;;;35.90;19.83;;;8.60;77.50;;;;;;5095052;28;20032;-65
2023/03/20 05:05:25;;;;;;;35.90;18.92;;;8.50;76.70;;;;;;5095177;28;20024;-65
2023/03/20 05:07:51;;;;;;;36.63;20.13;;;8.60;75.60;;;;;;5094809;28;20367;-65
2023/03/20 05:10:17;;;;;;;35.58;19.25;;;8.50;75.00;;;;;;5094251;28;20028;-65
2023/03/20 05:12:43;;;;;;;37.92;20.40;;;8.50;74.10;;;;;;5094704;28;20044;-65
2023/03/20 05:15:09;;;;;;;38.63;20.48;;;8.50;72.30;;;;;;5095024;28;20047;-65
2023/03/20 05:17:35;;;;;;;42.97;20.88;;;8.50;70.50;;;;;;5094754;28;20025;-65
2023/03/20 05:20:00;;;;;;;41.28;20.73;;;8.50;70.20;;;;;;5094836;28;20050;-65
2023/03/20 05:22:26;;;;;;;37.45;19.02;;;8.40;72.50;;;;;;5094595;28;20081;-65
2023/03/20 05:24:52;;;;;;;37.28;18.13;;;8.40;67.20;;;;;;5094693;28;20031;-65
2023/03/20 05:27:18;;;;;;;33.30;17.05;;;8.40;68.70;;;;;;5094534;28;20028;-65
2023/03/20 05:29:43;;;;;;;29.42;16.77;;;8.40;68.10;;;;;;5094978;28;20466;-65
2023/03/20 05:32:09;;;;;;;27.90;16.05;;;8.30;63.10;;;;;;5094795;28;20047;-65
2023/03/20 05:34:34;;;;;;;29.02;15.43;;;8.30;61.80;;;;;;5094626;28;20020;-65
2023/03/20 05:37:00;;;;;;;28.08;15.57;;;8.30;64.10;;;;;;5094342;28;20031;-65
2023/03/20 05:39:26;;;;;;;22.55;13.93;;;8.30;64.10;;;;;;5094467;28;20032;-65
2023/03/20 05:41:51;;;;;;;27.95;13.75;;;8.30;62.50;;;;;;5094318;28;20066;-65
2023/03/20 05:44:17;;;;;;;22.40;12.73;;;8.30;61.40;;;;;;5094443;28;20389;-65
2023/03/20 05:46:42;;;;;;;23.08;12.20;;;8.30;57.40;;;;;;5094137;28;20063;-65
2023/03/20 05:49:08;;;;;;;21.45;11.73;;;8.30;57.80;;;;;;5094253;28;20032;-65
2023/03/20 05:51:33;;;;;;;22.80;12.27;;;8.20;57.40;;;;;;5094448;28;20504;-65
2023/03/20 05:53:59;;;;;;;25.15;13.93;;;8.20;56.50;;;;;;5094066;28;20024;-65
2023/03/20 05:56:25;;;;;;;22.88;12.38;;;8.20;57.00;;;;;;5093969;28;20050;-65
2023/03/20 05:58:51;;;;;;;21.77;12.55;;;8.20;57.70;;;;;;5094104;28;20519;-65
2023/03/20 06:01:20;;;;;;;22.75;12.05;;;8.20;58.10;;;;;;5094185;28;20039;-65
2023/03/20 06:03:47;;;;;;;23.70;11.15;;;8.20;56.80;;;;;;5094393;28;20088;-65
2023/03/20 06:06:12;;;;;;;23.98;12.48;;;8.10;57.10;;;;;;5093888;28;20028;-65
2023/03/20 06:08:38;;;;;;;24.10;10.52;;;8.10;56.50;;;;;;5094062;28;20031;-65
2023/03/20 06:11:04;;;;;;;24.40;13.32;;;8.20;58.10;;;;;;5093741;28;20059;-65
2023/03/20 06:13:29;;;;;;;23.20;11.57;;;8.20;59.10;;;;;;5093866;28;20032;-65
2023/03/20 06:15:55;;;;;;;23.13;11.23;;;8.20;57.30;;;;;;5093773;28;20059;-65
2023/03/20 06:18:21;;;;;;;22.48;11.90;;;8.20;56.50;;;;;;5093760;28;20519;-65
2023/03/20 06:20:52;;;;;;;24.17;11.88;;;8.20;54.90;;;;;;5093817;28;20111;-65
2023/03/20 06:23:18;;;;;;;25.65;13.63;;;8.30;54.30;;;;;;5093357;28;20032;-65
2023/03/20 06:25:43;;;;;;;23.67;12.75;;;8.30;55.00;;;;;;5093373;28;20028;-65
2023/03/20 06:28:09;;;;;;;24.35;13.95;;;8.20;56.70;;;;;;5093428;28;20118;-65
2023/03/20 06:30:34;;;;;;;24.88;13.70;;;8.20;57.50;;;;;;5093514;28;20028;-65
2023/03/20 06:33:00;;;;;;;30.25;15.10;;;8.30;60.40;;;;;;5093388;28;20504;-65
2023/03/20 06:35:29;;;;;;;29.15;13.70;;;8.30;61.80;;;;;;5093490;28;20028;-65
2023/03/20 06:37:56;;;;;;;30.52;15.23;;;8.30;65.60;;;;;;5093597;28;20051;-65
2023/03/20 06:40:21;;;;;;;33.70;15.57;;;8.30;64.80;;;;;;5093516;28;20504;-65
2023/03/20 06:42:47;;;;;;;34.95;16.55;;;8.30;67.30;;;;;;5092973;28;20024;-66
2023/03/20 06:45:12;;;;;;;36.90;17.60;;;8.30;70.00;;;;;;5078582;28;20036;-65
2023/03/20 06:47:38;;;;;;;40.50;18.30;;;8.30;69.40;;;;;;5088936;28;20055;-66
2023/03/20 06:50:04;;;;;;;40.88;20.02;;;8.30;75.10;;;;;;5085913;28;20039;-65
2023/03/20 06:52:29;;;;;;;37.25;19.17;;;8.40;73.10;;;;;;5082872;28;20039;-65
2023/03/20 06:54:56;;;;;;;38.38;19.65;;;8.30;74.80;;;;;;5078966;28;20028;-65
2023/03/20 06:57:21;;;;;;;42.03;20.13;;;8.30;78.00;;;;;;5073839;28;20036;-65
2023/03/20 06:59:47;;;;;;;40.20;20.00;;;8.30;79.40;;;;;;5087666;28;20036;-67
2023/03/20 07:02:13;;;;;;;40.13;20.15;;;8.30;80.70;;;;;;5086018;28;20034;-65
2023/03/20 07:04:39;;;;;;;39.25;20.27;;;8.30;83.40;;;;;;5099246;28;20040;-65
2023/03/20 07:07:04;;;;;;;44.85;23.13;;;8.30;86.20;;;;;;5084551;28;20047;-65
2023/03/20 07:09:30;;;;;;;39.42;20.38;;;8.30;83.50;;;;;;5074542;28;20037;-65
2023/03/20 07:11:55;;;;;;;44.50;21.48;;;8.60;87.90;;;;;;5082384;28;20473;-65
2023/03/20 07:14:21;;;;;;;48.40;22.92;;;8.90;58.60;;;;;;5083020;28;20024;-65
2023/03/20 07:16:47;;;;;;;44.10;22.20;;;9.00;40.80;;;;;;5086344;28;20028;-65
2023/03/20 07:19:13;;;;;;;41.88;21.67;;;9.00;49.80;;;;;;5091316;28;20119;-65
2023/03/20 07:21:38;;;;;;;38.60;21.35;;;9.10;45.20;;;;;;5084129;28;20035;-66
2023/03/20 07:24:06;;;;;;;43.72;22.38;;;9.10;39.90;;;;;;5077480;28;20079;-65
2023/03/20 07:26:31;;;;;;;45.97;23.23;;;9.00;36.80;;;;;;5084770;28;20031;-65
2023/03/20 07:28:57;;;;;;;39.20;21.10;;;9.00;38.90;;;;;;5082733;28;20033;-65
2023/03/20 07:31:25;;;;;;;46.35;22.13;;;8.90;31.40;;;;;;5079979;28;20048;-65
2023/03/20 07:33:51;;;;;;;47.75;21.45;;;8.90;39.60;;;;;;5091896;28;20056;-65
2023/03/20 07:36:17;;;;;;;42.72;21.10;;;9.00;37.90;;;;;;5084382;28;20054;-65
2023/03/20 07:38:42;;;;;;;41.42;20.10;;;9.10;25.50;;;;;;5080784;28;21196;-69
2023/03/20 07:41:08;;;;;;;39.60;20.17;;;9.50;23.40;;;;;;5080157;28;20413;-67
2023/03/20 07:43:34;;;;;;;40.75;19.55;;;9.50;1.30;;;;;;5089219;28;20078;-65
2023/03/20 07:46:02;;;;;;;36.38;19.75;;;9.50;3.40;;;;;;5081078;28;20140;-65
2023/03/20 07:48:27;;;;;;;41.25;21.08;;;9.60;1.00;;;;;;5081744;28;20048;-65
2023/03/20 07:50:53;;;;;;;35.55;19.48;;;9.60;1.00;;;;;;5080545;28;20029;-65
2023/03/20 07:53:18;;;;;;;37.13;19.80;;;9.80;1.00;;;;;;5076958;28;20028;-66
2023/03/20 07:55:44;;;;;;;35.33;19.08;;;9.70;1.00;;;;;;5078874;28;20020;-65
2023/03/20 07:58:09;;;;;;;32.47;18.05;;;9.60;1.00;;;;;;5095833;28;20032;-65
2023/03/20 08:00:35;;;;;;;29.38;15.65;;;9.60;1.00;;;;;;5095730;28;20543;-71
2023/03/20 08:03:01;;;;;;;27.48;14.40;;;9.60;1.00;;;;;;5076839;28;20391;-65
2023/03/20 08:05:26;;;;;;;27.35;13.80;;;9.50;1.00;;;;;;5074454;28;20055;-65
2023/03/20 08:07:52;;;;;;;23.38;11.75;;;9.50;1.00;;;;;;5086431;28;20374;-65
2023/03/20 08:10:17;;;;;;;24.67;11.65;;;9.50;1.00;;;;;;5080952;28;20532;-65
2023/03/20 08:12:43;;;;;;;23.73;12.52;;;9.60;1.00;;;;;;5082360;28;20028;-65
2023/03/20 08:15:09;;;;;;;23.02;12.05;;;9.80;1.00;;;;;;5081518;28;20039;-66
2023/03/20 08:17:35;;;;;;;24.08;11.65;;;9.90;1.00;;;;;;5085490;28;20398;-66
2023/03/20 08:20:00;;;;;;;25.13;13.60;;;10.10;1.00;;;;;;5084835;28;20025;-65
2023/03/20 08:22:26;;;;;;;19.88;10.88;;;10.40;1.00;;;;;;5094479;28;20098;-65
2023/03/20 08:24:51;;;;;;;19.13;9.63;;;10.40;1.00;;;;;;5090480;28;20043;-66
2023/03/20 08:27:17;;;;;;;18.25;10.18;;;10.40;1.00;;;;;;5091873;28;20027;-65
2023/03/20 08:29:42;;;;;;;19.73;9.93;;;10.30;1.00;;;;;;5092703;28;20031;-65
2023/03/20 08:32:08;;;;;;;18.88;8.90;;;10.30;1.00;;;;;;5089941;28;20026;-64
2023/03/20 08:34:34;;;;;;;15.63;8.63;;;10.30;1.00;;;;;;5080625;28;20032;-65
2023/03/20 08:37:01;;;;;;;18.00;9.50;;;10.40;99.90;;;;;;5087113;28;20386;-65
2023/03/20 08:39:27;;;;;;;18.35;9.18;;;10.40;99.90;;;;;;5084215;28;20103;-65
2023/03/20 08:41:52;;;;;;;21.05;9.57;;;10.60;99.90;;;;;;5090447;28;20105;-65
2023/03/20 08:44:18;;;;;;;18.27;9.32;;;10.50;99.90;;;;;;5080521;28;20036;-66
2023/03/20 08:46:45;;;;;;;20.77;10.35;;;10.50;32.80;;;;;;5078356;28;20024;-65
2023/03/20 08:49:10;;;;;;;17.35;8.48;;;10.30;1.00;;;;;;5079128;28;20035;-65
2023/03/20 08:51:36;;;;;;;15.43;8.13;;;10.20;1.00;;;;;;5082683;28;20454;-65
2023/03/20 08:54:01;;;;;;;18.45;8.82;;;10.40;1.00;;;;;;5082032;28;20055;-65
2023/03/20 08:56:27;;;;;;;18.35;10.02;;;10.70;99.90;;;;;;5087545;28;20121;-65
2023/03/20 08:58:54;;;;;;;18.08;9.88;;;10.70;99.90;;;;;;5081189;28;20032;-65
2023/03/20 09:01:20;;;;;;;20.35;9.38;;;10.70;1.00;;;;;;5075223;28;20371;-64
2023/03/20 09:03:46;;;;;;;15.73;8.70;;;10.70;1.00;;;;;;5088860;28;20028;-65
2023/03/20 09:06:11;;;;;;;14.07;7.93;;;10.80;1.00;;;;;;5079073;28;20039;-65
2023/03/20 09:08:37;;;;;;;15.40;8.40;;;10.80;1.00;;;;;;5081811;28;20121;-65
2023/03/20 09:11:04;;;;;;;17.75;9.25;;;10.60;1.00;;;;;;5090043;28;20444;-65
2023/03/20 09:13:29;;;;;;;14.27;7.93;;;10.30;1.00;;;;;;5087522;28;20405;-64
2023/03/20 09:15:55;;;;;;;18.58;7.80;;;10.20;77.10;;;;;;5086629;28;20111;-65
2023/03/20 09:18:21;;;;;;;18.77;8.05;;;10.20;99.90;;;;;;5089704;28;20028;-65
2023/03/20 09:20:48;;;;;;;17.38;8.15;;;10.20;50.90;;;;;;5076782;28;20474;-64
2023/03/20 09:23:13;;;;;;;18.35;8.93;;;10.10;1.00;;;;;;5086204;28;20028;-65
2023/03/20 09:25:39;;;;;;;21.45;8.77;;;10.10;33.20;;;;;;5082422;28;20401;-65
2023/03/20 09:28:05;;;;;;;16.25;9.57;;;10.20;99.90;;;;;;5079013;28;20498;-68
2023/03/20 09:30:30;;;;;;;19.27;9.55;;;10.20;65.80;;;;;;5086114;28;20034;-64
2023/03/20 09:32:56;;;;;;;19.83;9.88;;;10.30;1.00;;;;;;5090731;28;20028;-65
2023/03/20 09:35:21;;;;;;;18.02;9.02;;;10.40;1.00;;;;;;5085176;28;20106;-64
2023/03/20 09:37:47;;;;;;;21.27;10.52;;;10.40;99.90;;;;;;5085154;28;20062;-65
2023/03/20 09:43:30;;;;;;;19.58;11.07;;;10.40;1.00;;;;;;5108508;27;20453;-65
2023/03/20 09:46:21;;;;;;;21.00;10.30;;;10.10;1.00;;;;;;5102045;28;20506;-65
2023/03/20 09:49:04;;;;;;;22.17;11.55;;;10.30;99.90;;;;;;5098240;28;20489;-64
2023/03/20 09:51:52;;;;;;;21.80;11.80;;;10.40;1.00;;;;;;5101660;28;20031;-64
2023/03/20 09:54:27;;;;;;;20.27;11.25;;;10.30;1.00;;;;;;5107407;28;20522;-64
2023/03/20 09:56:55;;;;;;;23.08;12.25;;;10.30;1.00;;;;;;5108324;28;20128;-64
2023/03/20 09:59:22;;;;;;;21.40;11.88;;;10.40;1.00;;;;;;5108257;27;20036;-64
2023/03/20 10:02:02;;;;;;;21.75;11.68;;;10.50;99.90;;;;;;5107010;28;20036;-64
2023/03/20 10:04:28;;;;;;;22.73;12.32;;;10.50;99.90;;;;;;5099393;28;20047;-67
2023/03/20 10:06:55;;;;;;;19.50;10.52;;;10.50;99.90;;;;;;5106691;28;20038;-65
2023/03/20 10:09:23;;;;;;;20.13;11.20;;;10.50;99.90;;;;;;5104401;28;20470;-65
2023/03/20 10:12:15;;;;;;;18.92;11.15;;;10.70;99.90;;;;;;5103081;28;20042;-66
2023/03/20 10:15:20;;;;;;;25.23;10.30;;;10.90;99.90;;;;;;5092479;28;20070;-66
2023/03/20 10:21:12;;;;;;;18.73;10.13;;;11.10;99.90;;;;;;5104017;27;20370;-65
2023/03/20 10:24:05;;;;;;;17.65;10.20;;;11.00;99.90;;;;;;5109377;28;20085;-65
2023/03/20 10:26:34;;;;;;;20.03;8.50;;;10.70;99.90;;;;;;5107242;28;20119;-65
2023/03/20 10:29:23;;;;;;;17.25;8.57;;;10.60;99.90;;;;;;5099392;28;20442;-65
2023/03/20 10:32:01;;;;;;;17.67;7.75;;;10.70;99.90;;;;;;5101067;28;20122;-65
2023/03/20 10:34:57;;;;;;;16.60;7.13;;;10.80;99.90;;;;;;5094357;28;20505;-66
2023/03/20 10:37:51;;;;;;;18.08;7.70;;;10.80;1.00;;;;;;5099818;28;20097;-65
2023/03/20 10:40:38;;;;;;;14.45;7.20;;;10.90;1.00;;;;;;5095039;28;20113;-65
2023/03/20 10:43:20;;;;;;;15.23;7.35;;;10.90;1.00;;;;;;5104824;28;20024;-65
2023/03/20 10:45:51;;;;;;;12.63;7.30;;;10.90;1.00;;;;;;5101890;28;20023;-65
2023/03/20 10:48:28;;;;;;;14.57;7.93;;;11.10;1.00;;;;;;5105832;28;20028;-65
2023/03/20 10:50:57;;;;;;;16.30;8.00;;;11.00;99.90;;;;;;5103505;28;20356;-65
2023/03/20 10:53:29;;;;;;;15.90;9.48;;;10.90;99.90;;;;;;5104268;28;20070;-65
2023/03/20 10:55:58;;;;;;;16.38;9.85;;;11.10;99.90;;;;;;5102880;28;20060;-65
2023/03/20 10:58:28;;;;;;;12.82;8.60;;;11.10;74.20;;;;;;5097398;28;20032;-65
2023/03/20 11:00:55;;;;;;;12.00;7.47;;;11.10;99.30;;;;;;5108693;28;20118;-64
2023/03/20 11:03:24;;;;;;;13.95;7.10;;;11.10;99.90;;;;;;5101143;27;20382;-65
2023/03/20 11:05:57;;;;;;;16.83;7.57;;;11.20;99.90;;;;;;5097478;28;20028;-65
2023/03/20 11:08:29;;;;;;;15.45;7.68;;;11.40;1.00;;;;;;5100915;28;20069;-65
2023/03/20 11:10:59;;;;;;;14.68;7.80;;;11.40;99.90;;;;;;5102114;28;20092;-65
2023/03/20 11:13:33;;;;;;;13.00;7.93;;;11.30;1.00;;;;;;5102734;28;20053;-65
2023/03/20 11:16:10;;;;;;;15.23;7.97;;;11.10;99.90;;;;;;5088609;28;20397;-65
2023/03/20 11:18:36;;;;;;;17.92;7.85;;;10.80;1.00;;;;;;5102220;28;20389;-64
2023/03/20 11:21:02;;;;;;;17.15;8.57;;;10.90;1.00;;;;;;5091484;28;20029;-64
2023/03/20 11:23:33;;;;;;;14.02;8.00;;;10.80;99.90;;;;;;5099874;28;20107;-65
2023/03/20 11:26:05;;;;;;;15.57;8.82;;;10.80;99.90;;;;;;5098329;28;20102;-65
2023/03/20 11:28:51;;;;;;;19.00;9.02;;;10.90;99.90;;;;;;5099202;28;20539;-67
2023/03/20 11:31:40;;;;;;;15.55;8.57;;;10.80;70.90;;;;;;5092547;28;20094;-64
2023/03/20 11:34:17;;;;;;;16.85;8.38;;;10.90;99.90;;;;;;5086115;28;20057;-64
2023/03/20 11:36:52;;;;;;;14.77;7.28;;;11.30;99.90;;;;;;5094864;28;20039;-64
2023/03/20 11:39:28;;;;;;;12.70;6.20;;;11.40;99.90;;;;;;5084064;28;20558;-64
2023/03/20 11:41:56;;;;;;;12.27;6.00;;;11.50;99.90;;;;;;5076871;28;20074;-66
2023/03/20 11:44:26;;;;;;;11.73;5.90;;;11.40;99.90;;;;;;5083055;28;20047;-65
2023/03/20 11:47:14;;;;;;;10.65;5.80;;;11.10;99.90;;;;;;5083236;28;20028;-65
2023/03/20 11:49:53;;;;;;;14.60;5.60;;;11.30;99.90;;;;;;5089635;28;20508;-65
2023/03/20 11:52:23;;;;;;;11.55;6.15;;;11.10;99.90;;;;;;5082118;28;20111;-64
2023/03/20 11:54:52;;;;;;;11.73;5.50;;;11.10;99.90;;;;;;5081284;28;20082;-66
2023/03/20 11:57:36;;;;;;;10.75;4.20;;;11.00;99.90;;;;;;5090474;28;20028;-66
2023/03/20 12:00:04;;;;;;;;;;;11.00;1.00;;;;;;5087423;28;20466;-67
2023/03/20 12:02:30;;;;;;;9.60;4.30;;;11.10;1.00;;;;;;5084562;28;19912;-65
2023/03/20 12:04:59;;;;;;;9.90;3.40;;;11.10;1.00;;;;;;5087909;28;20067;-65
2023/03/20 12:07:31;;;;;;;6.78;3.05;;;11.20;1.00;;;;;;5085795;28;20070;-64
2023/03/20 12:10:05;;;;;;;8.73;3.03;;;11.40;99.90;;;;;;5085209;28;20028;-66
2023/03/20 12:12:41;;;;;;;;;;;11.50;99.90;;;;;;5093969;28;20032;-64
2023/03/20 12:21:06;;;;;;;9.20;2.95;;;11.60;99.90;;;;;;5108218;27;20404;-63
2023/03/20 12:23:55;;;;;;;8.10;3.00;;;11.70;99.90;;;;;;5089290;28;20449;-63
2023/03/20 12:26:30;;;;;;;9.55;2.78;;;11.50;99.90;;;;;;5087192;28;20028;-63
2023/03/20 12:29:03;;;;;;;10.38;3.13;;;11.30;99.90;;;;;;5072243;28;20438;-63
2023/03/20 12:31:37;;;;;;;9.30;3.40;;;11.20;99.90;;;;;;5097796;28;20065;-62
2023/03/20 12:34:26;;;;;;;11.00;2.80;;;11.20;99.90;;;;;;5101355;28;20126;-62
2023/03/20 12:36:56;;;;;;;8.93;3.50;;;11.00;99.90;;;;;;5089546;28;20032;-62
2023/03/20 12:39:27;;;;;;;9.23;3.60;;;10.90;99.90;;;;;;5090280;28;20055;-62
2023/03/20 12:47:55;;;;;;;12.55;4.32;;;10.90;1.00;;;;;;5108726;27;1157372;-64
2023/03/20 12:50:40;;;;;;;10.13;3.65;;;10.80;99.90;;;;;;5130347;28;20393;-64
2023/03/20 12:53:42;;;;;;;12.63;3.88;;;10.70;1.00;;;;;;5129592;27;20074;-63
2023/03/20 12:56:47;;;;;;;11.43;3.72;;;10.60;1.00;;;;;;5129610;28;20403;-63
2023/03/20 12:59:53;;;;;;;7.32;3.88;;;10.70;1.00;;;;;;5125490;28;20528;-64
2023/03/20 13:02:36;;;;;;;8.13;3.67;;;10.80;10.30;;;;;;5122464;28;20035;-64
2023/03/20 13:05:28;;;;;;;8.00;3.67;;;10.80;1.00;;;;;;5128310;28;20058;-63
2023/03/20 13:08:35;;;;;;;10.02;4.60;;;10.60;99.90;;;;;;5112113;28;20350;-63
2023/03/20 13:11:28;;;;;;;8.27;4.15;;;10.60;50.90;;;;;;5126748;27;20020;-66
2023/03/20 13:13:58;;;;;;;11.60;4.60;;;10.50;99.90;;;;;;5124078;28;20080;-64
2023/03/20 13:16:42;;;;;;;11.25;4.05;;;10.60;99.90;;;;;;5130937;27;20392;-63
2023/03/20 13:19:41;;;;;;;14.05;4.30;;;10.50;99.90;;;;;;5128172;28;20745;-64
2023/03/20 13:22:32;;;;;;;10.93;4.68;;;10.60;99.90;;;;;;5124510;28;20480;-63
2023/03/20 13:25:15;;;;;;;11.80;5.00;;;10.40;1.00;;;;;;5128993;27;20027;-63